Time;durP1;ratioP1;P1;durP2;ratioP2;P2;SDS_P1;SDS_P2;PMS_P1;PMS_P2;Temp;Humidity;BMP_temperature;BMP_pressure;BME280_temperature;BME280_humidity;BME280_pressure;Samples;Min_cycle;Max_cycle;Signal;HPM_P1;HPM_P2
2022/04/29 00:02:25;;;;;;;6.13;3.20;;;9.50;66.20;;;;;;5087333;28;20028;-72
2022/04/29 00:04:51;;;;;;;4.25;2.92;;;9.50;66.20;;;;;;5089815;28;20549;-72
2022/04/29 00:07:16;;;;;;;6.65;3.13;;;9.50;66.20;;;;;;5091165;28;20058;-72
2022/04/29 00:09:42;;;;;;;5.68;2.90;;;9.50;66.10;;;;;;5091349;28;20028;-72
2022/04/29 00:12:08;;;;;;;4.80;2.70;;;9.40;66.10;;;;;;5091023;28;20028;-72
2022/04/29 00:14:34;;;;;;;6.30;3.42;;;9.50;66.10;;;;;;5091759;28;20035;-72
2022/04/29 00:17:00;;;;;;;4.85;2.58;;;9.50;66.10;;;;;;5091057;28;20012;-72
2022/04/29 00:19:26;;;;;;;6.07;3.10;;;9.50;66.10;;;;;;5091546;28;20984;-72
2022/04/29 00:21:52;;;;;;;7.00;3.45;;;9.50;66.20;;;;;;5091810;28;20048;-72
2022/04/29 00:24:17;;;;;;;9.27;4.25;;;9.40;67.00;;;;;;5092669;28;20101;-70
2022/04/29 00:26:43;;;;;;;5.60;3.22;;;9.40;66.50;;;;;;5091435;28;20028;-71
2022/04/29 00:29:09;;;;;;;5.28;3.50;;;9.40;66.60;;;;;;5091724;28;20031;-72
2022/04/29 00:31:35;;;;;;;6.05;3.20;;;9.40;66.70;;;;;;5092525;28;20648;-71
2022/04/29 00:34:01;;;;;;;6.68;3.67;;;9.30;66.80;;;;;;5101750;28;20034;-71
2022/04/29 00:36:27;;;;;;;6.95;3.60;;;9.30;66.90;;;;;;5095397;28;20024;-72
2022/04/29 00:38:53;;;;;;;4.90;3.38;;;9.30;66.90;;;;;;5090262;28;20032;-70
2022/04/29 00:41:20;;;;;;;8.27;3.90;;;9.20;66.90;;;;;;5090993;28;20110;-69
2022/04/29 00:43:46;;;;;;;7.30;3.80;;;9.20;67.00;;;;;;5087579;28;20028;-71
2022/04/29 00:46:11;;;;;;;7.57;4.03;;;9.20;67.20;;;;;;5091925;28;20023;-72
2022/04/29 00:48:37;;;;;;;8.68;4.30;;;9.20;67.30;;;;;;5090433;28;20021;-73
2022/04/29 00:51:04;;;;;;;6.88;3.50;;;9.10;67.40;;;;;;5089222;28;20028;-73
2022/04/29 00:53:30;;;;;;;6.75;3.78;;;9.10;67.50;;;;;;5085902;28;20033;-74
2022/04/29 00:55:57;;;;;;;5.97;3.22;;;9.00;67.60;;;;;;5089746;28;20032;-73
2022/04/29 00:58:42;;;;;;;5.90;3.95;;;9.00;67.60;;;;;;5093706;28;20021;-73
2022/04/29 01:01:08;;;;;;;6.70;4.10;;;9.00;67.60;;;;;;5091390;28;20101;-73
2022/04/29 01:03:37;;;;;;;5.35;3.20;;;9.00;67.60;;;;;;5091011;28;20028;-73
2022/04/29 01:06:03;;;;;;;7.32;3.80;;;9.00;67.70;;;;;;5091024;28;20390;-70
2022/04/29 01:08:28;;;;;;;6.50;4.38;;;8.90;68.10;;;;;;5090189;28;20042;-70
2022/04/29 01:10:54;;;;;;;9.23;5.25;;;8.80;68.20;;;;;;5091393;28;20034;-69
2022/04/29 01:13:21;;;;;;;7.88;4.72;;;8.80;68.50;;;;;;5090055;28;20055;-70
2022/04/29 01:15:48;;;;;;;6.90;3.90;;;8.70;69.40;;;;;;5085894;28;20020;-70
2022/04/29 01:18:16;;;;;;;6.80;3.85;;;8.70;68.80;;;;;;5085753;28;20027;-70
2022/04/29 01:20:43;;;;;;;6.80;3.70;;;8.70;68.90;;;;;;5091765;28;20685;-72
2022/04/29 01:23:11;;;;;;;6.45;4.22;;;8.70;68.90;;;;;;5088970;28;20152;-72
2022/04/29 01:25:37;;;;;;;9.95;5.50;;;8.70;69.00;;;;;;5091680;28;20028;-73
2022/04/29 01:28:03;;;;;;;6.75;4.40;;;8.60;69.50;;;;;;5088817;28;20551;-72
2022/04/29 01:30:29;;;;;;;10.15;6.07;;;8.60;69.80;;;;;;5106201;28;20044;-71
2022/04/29 01:32:56;;;;;;;8.68;4.90;;;8.50;70.20;;;;;;5087730;28;20032;-71
2022/04/29 01:35:22;;;;;;;8.77;5.32;;;8.50;70.30;;;;;;5090712;28;20089;-71
2022/04/29 01:37:48;;;;;;;7.72;4.90;;;8.40;70.60;;;;;;5091396;28;20735;-71
2022/04/29 01:40:14;;;;;;;9.43;4.93;;;8.40;70.40;;;;;;5088641;28;20110;-71
2022/04/29 01:42:41;;;;;;;8.48;5.40;;;8.50;70.20;;;;;;5101087;28;20017;-70
2022/04/29 01:45:08;;;;;;;7.05;4.97;;;8.40;70.50;;;;;;5089889;28;20028;-70
2022/04/29 01:47:33;;;;;;;9.07;6.05;;;8.40;70.60;;;;;;5091333;28;20058;-70
2022/04/29 01:49:59;;;;;;;9.70;5.38;;;8.30;71.20;;;;;;5090197;28;20120;-71
2022/04/29 01:52:25;;;;;;;6.95;4.82;;;8.30;71.20;;;;;;5091356;28;20162;-71
2022/04/29 01:54:50;;;;;;;8.20;4.88;;;8.40;71.00;;;;;;5088727;28;20031;-70
2022/04/29 01:57:16;;;;;;;8.93;5.55;;;8.30;70.80;;;;;;5090182;28;20035;-70
2022/04/29 01:59:42;;;;;;;6.82;5.00;;;8.30;71.10;;;;;;5090563;28;20026;-71
2022/04/29 02:02:07;;;;;;;8.48;5.80;;;8.30;71.00;;;;;;5089696;28;20093;-70
2022/04/29 02:04:34;;;;;;;6.97;5.20;;;8.30;71.20;;;;;;5088923;28;20127;-70
2022/04/29 02:07:00;;;;;;;7.57;5.03;;;8.30;71.20;;;;;;5090313;28;20020;-70
2022/04/29 02:09:26;;;;;;;8.65;5.70;;;8.20;71.40;;;;;;5087949;28;20055;-71
2022/04/29 02:12:06;;;;;;;8.57;4.97;;;8.20;71.30;;;;;;5089038;28;20066;-72
2022/04/29 02:14:36;;;;;;;8.98;5.30;;;8.20;71.20;;;;;;5086385;28;20123;-75
2022/04/29 02:17:03;;;;;;;10.52;6.03;;;8.30;71.10;;;;;;5089705;28;20696;-73
2022/04/29 02:19:29;;;;;;;8.43;5.18;;;8.20;71.60;;;;;;5100504;28;20483;-74
2022/04/29 02:21:56;;;;;;;7.20;4.82;;;8.20;71.60;;;;;;5088877;28;20032;-74
2022/04/29 02:24:21;;;;;;;12.63;6.78;;;8.20;71.40;;;;;;5089479;28;20513;-76
2022/04/29 02:26:47;;;;;;;11.48;6.00;;;8.10;72.30;;;;;;5102840;28;20032;-75
2022/04/29 02:29:12;;;;;;;8.15;5.72;;;8.10;72.40;;;;;;5087268;28;20024;-72
2022/04/29 02:31:38;;;;;;;8.98;6.20;;;8.10;72.70;;;;;;5089975;28;20567;-73
2022/04/29 02:34:04;;;;;;;10.40;6.07;;;8.00;72.70;;;;;;5087204;28;20552;-74
2022/04/29 02:36:29;;;;;;;10.18;6.68;;;8.00;72.70;;;;;;5105817;28;20688;-74
2022/04/29 02:38:55;;;;;;;8.63;5.70;;;8.00;72.70;;;;;;5088716;28;20028;-73
2022/04/29 02:41:20;;;;;;;10.68;6.25;;;8.10;72.60;;;;;;5089556;28;20036;-73
2022/04/29 02:43:46;;;;;;;10.60;5.82;;;8.10;73.00;;;;;;5088772;28;20409;-73
2022/04/29 02:46:12;;;;;;;12.38;6.50;;;8.10;72.80;;;;;;5089352;28;20090;-75
2022/04/29 02:48:37;;;;;;;7.40;5.25;;;8.10;72.70;;;;;;5089341;28;20039;-75
2022/04/29 02:51:04;;;;;;;10.05;6.57;;;8.10;72.50;;;;;;5086299;28;20601;-75
2022/04/29 02:53:30;;;;;;;8.82;6.18;;;8.10;72.70;;;;;;5087469;28;20101;-73
2022/04/29 02:55:56;;;;;;;9.75;6.15;;;8.00;73.10;;;;;;5086866;28;20024;-73
2022/04/29 02:58:22;;;;;;;10.07;5.78;;;8.00;72.90;;;;;;5082896;28;20035;-73
2022/04/29 03:00:47;;;;;;;7.63;5.22;;;8.00;72.70;;;;;;5079776;28;20035;-71
2022/04/29 03:03:13;;;;;;;9.05;5.75;;;8.10;72.60;;;;;;5086507;28;20150;-72
2022/04/29 03:05:39;;;;;;;9.70;5.90;;;8.10;72.60;;;;;;5085970;28;20367;-73
2022/04/29 03:08:05;;;;;;;7.72;4.95;;;8.00;72.60;;;;;;5080136;28;20032;-73
2022/04/29 03:10:31;;;;;;;9.32;5.20;;;8.00;72.50;;;;;;5088700;28;20036;-73
2022/04/29 03:12:56;;;;;;;8.98;5.75;;;8.10;72.50;;;;;;5084753;28;20030;-73
2022/04/29 03:15:25;;;;;;;6.70;4.57;;;8.10;72.40;;;;;;5088119;28;20020;-73
2022/04/29 03:20:38;;;;;;;12.23;7.43;;;8.00;72.90;;;;;;5078581;28;20036;-72
2022/04/29 03:23:05;;;;;;;12.13;6.20;;;7.90;73.70;;;;;;5087615;28;20024;-72
2022/04/29 03:25:31;;;;;;;8.75;5.45;;;7.90;73.50;;;;;;5088952;28;20478;-73
2022/04/29 03:27:56;;;;;;;10.40;5.38;;;7.90;73.30;;;;;;5078967;28;20040;-72
2022/04/29 03:30:22;;;;;;;9.93;5.90;;;7.90;73.20;;;;;;5087000;28;20024;-71
2022/04/29 03:32:55;;;;;;;10.43;6.25;;;7.90;73.20;;;;;;5089256;28;20478;-71
2022/04/29 03:35:21;;;;;;;8.38;4.70;;;7.90;73.40;;;;;;5085755;28;20032;-71
2022/04/29 03:37:51;;;;;;;7.35;5.40;;;7.90;73.30;;;;;;5085250;28;20031;-71
2022/04/29 03:40:20;;;;;;;8.57;5.30;;;7.90;73.30;;;;;;5092323;28;20015;-71
2022/04/29 03:42:46;;;;;;;11.13;6.95;;;7.80;73.30;;;;;;5090927;28;20103;-71
2022/04/29 03:45:12;;;;;;;10.40;5.75;;;7.80;74.40;;;;;;5093004;28;20498;-71
2022/04/29 03:47:38;;;;;;;10.48;6.15;;;7.70;74.20;;;;;;5090901;28;20061;-71
2022/04/29 03:50:04;;;;;;;12.27;6.63;;;7.70;74.10;;;;;;5079869;28;20020;-71
2022/04/29 03:52:30;;;;;;;9.25;5.95;;;7.70;74.50;;;;;;5089292;28;20085;-69
2022/04/29 03:54:56;;;;;;;10.00;6.10;;;7.70;74.40;;;;;;5091312;28;20024;-70
2022/04/29 03:57:21;;;;;;;13.07;7.40;;;7.70;74.10;;;;;;5089360;28;20478;-70
2022/04/29 03:59:48;;;;;;;13.90;7.97;;;7.70;74.60;;;;;;5093142;28;20446;-71
2022/04/29 04:02:14;;;;;;;14.10;7.85;;;7.50;75.50;;;;;;5091155;28;20020;-71
2022/04/29 04:04:40;;;;;;;12.82;7.30;;;7.50;76.30;;;;;;5092933;28;20097;-72
2022/04/29 04:07:05;;;;;;;12.70;7.70;;;7.40;76.30;;;;;;5093143;28;20039;-72
2022/04/29 04:09:31;;;;;;;10.07;6.75;;;7.40;76.40;;;;;;5092244;28;20483;-72
2022/04/29 04:11:57;;;;;;;13.40;8.00;;;7.40;76.10;;;;;;5091832;28;20720;-72
2022/04/29 04:14:22;;;;;;;10.73;7.38;;;7.40;76.20;;;;;;5090223;28;20032;-72
2022/04/29 04:16:48;;;;;;;15.07;7.50;;;7.40;76.30;;;;;;5092939;28;20509;-72
2022/04/29 04:19:14;;;;;;;11.90;7.00;;;7.40;76.30;;;;;;5091876;28;20027;-71
2022/04/29 04:21:40;;;;;;;11.35;6.38;;;7.40;76.50;;;;;;5085916;28;20021;-72
2022/04/29 04:24:06;;;;;;;9.65;6.95;;;7.40;76.30;;;;;;5091255;28;20024;-72
2022/04/29 04:26:32;;;;;;;13.23;6.75;;;7.40;76.70;;;;;;5092243;28;20044;-70
2022/04/29 04:28:58;;;;;;;8.13;5.38;;;7.50;76.40;;;;;;5093238;28;20048;-71
2022/04/29 04:31:24;;;;;;;11.82;6.90;;;7.50;76.00;;;;;;5088930;28;20032;-72
2022/04/29 04:33:53;;;;;;;11.43;6.20;;;7.50;76.10;;;;;;5092483;28;20028;-72
2022/04/29 04:36:19;;;;;;;8.63;5.85;;;7.50;76.00;;;;;;5092560;28;20024;-71
2022/04/29 04:38:47;;;;;;;13.10;8.30;;;7.60;75.90;;;;;;5092587;28;20030;-72
2022/04/29 04:41:16;;;;;;;10.40;5.97;;;7.50;76.30;;;;;;5091330;28;20108;-72
2022/04/29 04:43:42;;;;;;;12.15;7.50;;;7.50;76.10;;;;;;5091477;28;20016;-72
2022/04/29 04:46:08;;;;;;;11.85;6.78;;;7.40;76.70;;;;;;5092663;28;20528;-72
2022/04/29 04:48:34;;;;;;;13.52;8.15;;;7.40;76.70;;;;;;5091483;28;20020;-71
2022/04/29 04:51:03;;;;;;;12.70;7.68;;;7.50;77.00;;;;;;5090916;28;20067;-70
2022/04/29 04:53:29;;;;;;;11.50;6.60;;;7.40;77.20;;;;;;5090117;28;20023;-71
2022/04/29 04:55:55;;;;;;;9.23;5.30;;;7.50;77.00;;;;;;5091796;28;20576;-69
2022/04/29 04:58:20;;;;;;;14.35;8.32;;;7.60;76.70;;;;;;5090777;28;20028;-70
2022/04/29 05:00:46;;;;;;;9.93;6.68;;;7.50;77.20;;;;;;5091777;28;20359;-70
2022/04/29 05:03:11;;;;;;;13.45;7.20;;;7.50;77.00;;;;;;5089482;28;20020;-71
2022/04/29 05:05:37;;;;;;;12.77;6.40;;;7.60;76.80;;;;;;5090116;28;20766;-72
2022/04/29 05:08:03;;;;;;;11.38;6.53;;;7.60;76.80;;;;;;5090389;28;20024;-72
2022/04/29 05:10:28;;;;;;;14.93;8.93;;;7.50;77.10;;;;;;5090581;28;20406;-72
2022/04/29 05:12:54;;;;;;;11.15;7.28;;;7.50;77.70;;;;;;5104563;28;20497;-73
2022/04/29 05:15:19;;;;;;;11.15;7.10;;;7.50;77.70;;;;;;5089258;28;20412;-71
2022/04/29 05:17:45;;;;;;;12.82;7.95;;;7.40;78.50;;;;;;5084346;28;20013;-71
2022/04/29 05:20:12;;;;;;;13.70;7.47;;;7.50;77.80;;;;;;5083092;28;20028;-71
2022/04/29 05:22:39;;;;;;;9.77;6.10;;;7.50;77.80;;;;;;5090873;28;20085;-72
2022/04/29 05:25:05;;;;;;;12.60;7.70;;;7.60;77.40;;;;;;5087812;28;20103;-73
2022/04/29 05:27:31;;;;;;;14.63;7.90;;;7.60;77.50;;;;;;5085734;28;20024;-74
2022/04/29 05:29:57;;;;;;;12.43;7.47;;;7.50;77.60;;;;;;5088844;28;20119;-72
2022/04/29 05:32:24;;;;;;;12.65;8.10;;;7.50;77.90;;;;;;5103585;28;20039;-73
2022/04/29 05:34:50;;;;;;;12.27;7.53;;;7.50;77.90;;;;;;5084761;28;20101;-71
2022/04/29 05:37:16;;;;;;;11.13;7.03;;;7.50;77.70;;;;;;5087062;28;20406;-70
2022/04/29 05:42:26;;;;;;;13.57;6.53;;;7.70;77.20;;;;;;5086495;28;20169;-70
2022/04/29 05:44:53;;;;;;;11.00;6.45;;;7.70;77.10;;;;;;5086240;28;20124;-71
2022/04/29 05:47:18;;;;;;;9.07;5.88;;;7.80;76.80;;;;;;5089909;28;20478;-71
2022/04/29 05:49:44;;;;;;;9.60;5.90;;;7.80;76.50;;;;;;5095984;28;20108;-71
2022/04/29 05:52:10;;;;;;;9.95;5.75;;;7.90;76.30;;;;;;5089954;28;20032;-70
2022/04/29 05:54:36;;;;;;;14.52;7.55;;;7.90;76.10;;;;;;5086785;28;20024;-74
2022/04/29 05:57:02;;;;;;;10.80;6.53;;;7.90;76.10;;;;;;5090982;28;20017;-72
2022/04/29 05:59:29;;;;;;;10.45;7.10;;;7.90;76.10;;;;;;5081100;28;20582;-71
2022/04/29 06:01:55;;;;;;;9.52;6.30;;;8.00;76.10;;;;;;5090232;28;20107;-72
2022/04/29 06:04:21;;;;;;;10.15;5.75;;;8.00;76.20;;;;;;5089526;28;20465;-72
2022/04/29 06:06:46;;;;;;;13.88;7.32;;;8.00;76.10;;;;;;5093547;28;20713;-71
2022/04/29 06:09:12;;;;;;;13.45;7.78;;;8.00;76.20;;;;;;5090539;28;20102;-72
2022/04/29 06:11:37;;;;;;;11.70;7.20;;;8.00;76.30;;;;;;5088101;28;20020;-74
2022/04/29 06:14:03;;;;;;;12.40;7.53;;;8.10;76.40;;;;;;5089200;28;20031;-72
2022/04/29 06:16:29;;;;;;;10.95;6.65;;;8.00;76.70;;;;;;5089040;28;20036;-71
2022/04/29 06:18:54;;;;;;;8.65;5.00;;;8.10;76.60;;;;;;5088312;28;20024;-72
2022/04/29 06:21:20;;;;;;;10.10;5.90;;;8.20;76.20;;;;;;5089533;28;20517;-71
2022/04/29 06:23:46;;;;;;;7.88;4.72;;;8.30;75.80;;;;;;5089953;28;20049;-72
2022/04/29 06:26:12;;;;;;;11.48;6.53;;;8.40;75.40;;;;;;5089066;28;20111;-73
2022/04/29 06:28:38;;;;;;;10.30;6.35;;;8.40;75.50;;;;;;5090641;28;20028;-72
2022/04/29 06:31:04;;;;;;;10.40;6.50;;;8.50;75.40;;;;;;5089612;28;20031;-71
2022/04/29 06:33:30;;;;;;;11.25;5.63;;;8.50;75.30;;;;;;5088973;28;20709;-71
2022/04/29 06:35:56;;;;;;;7.70;4.97;;;8.60;75.00;;;;;;5088408;28;20059;-71
2022/04/29 06:38:22;;;;;;;15.95;7.68;;;8.70;74.80;;;;;;5094757;28;20028;-73
2022/04/29 06:40:47;;;;;;;12.75;6.63;;;8.70;74.70;;;;;;5090377;28;20505;-70
2022/04/29 06:43:13;;;;;;;11.32;6.43;;;8.70;74.90;;;;;;5092544;28;20102;-70
2022/04/29 06:45:39;;;;;;;11.73;6.18;;;8.70;75.00;;;;;;5092472;28;20409;-72
2022/04/29 06:48:04;;;;;;;8.70;5.30;;;8.90;74.80;;;;;;5088889;28;20070;-71
2022/04/29 06:50:31;;;;;;;9.85;5.53;;;9.00;74.40;;;;;;5089400;28;20051;-71
2022/04/29 06:52:57;;;;;;;11.65;6.68;;;9.00;74.20;;;;;;5088381;28;20023;-72
2022/04/29 06:55:23;;;;;;;11.27;6.53;;;9.10;74.20;;;;;;5094500;28;20036;-72
2022/04/29 06:57:49;;;;;;;13.20;6.43;;;9.10;74.30;;;;;;5093708;28;20030;-71
2022/04/29 07:00:15;;;;;;;9.82;6.90;;;9.10;74.20;;;;;;5094211;28;20046;-70
2022/04/29 07:02:41;;;;;;;11.95;6.15;;;9.20;74.10;;;;;;5089969;28;20016;-71
2022/04/29 07:05:08;;;;;;;7.20;5.28;;;9.40;73.60;;;;;;5082471;28;20032;-72
2022/04/29 07:07:34;;;;;;;14.93;7.63;;;9.60;73.00;;;;;;5103918;28;20024;-71
2022/04/29 07:09:59;;;;;;;11.15;6.60;;;9.60;72.70;;;;;;5089798;28;20046;-71
2022/04/29 07:12:25;;;;;;;7.93;4.88;;;9.60;72.90;;;;;;5091901;28;20454;-72
2022/04/29 07:14:52;;;;;;;12.20;5.88;;;9.90;72.50;;;;;;5098483;28;20062;-71
2022/04/29 07:17:20;;;;;;;10.13;5.80;;;10.10;71.80;;;;;;5092383;28;20539;-70
2022/04/29 07:19:46;;;;;;;9.35;4.85;;;10.40;71.20;;;;;;5097406;28;20490;-70
2022/04/29 07:22:12;;;;;;;8.15;4.53;;;10.70;70.50;;;;;;5097215;28;20705;-70
2022/04/29 07:24:37;;;;;;;8.18;5.57;;;10.90;69.60;;;;;;5097120;28;20028;-70
2022/04/29 07:27:03;;;;;;;8.02;5.13;;;11.00;68.80;;;;;;5094923;28;20078;-70
2022/04/29 07:29:29;;;;;;;7.30;4.47;;;11.10;68.60;;;;;;5105982;28;20405;-70
2022/04/29 07:31:54;;;;;;;9.45;5.15;;;11.40;68.20;;;;;;5088651;28;20031;-70
2022/04/29 07:41:44;;;;;;;7.03;4.50;;;11.60;67.20;;;;;;5084859;28;20024;-71
2022/04/29 07:42:35;;;;;;;7.32;4.40;;;12.10;65.20;;;;;;5095121;28;20042;-71
2022/04/29 07:45:00;;;;;;;8.90;5.03;;;12.30;65.00;;;;;;5091810;28;20024;-70
2022/04/29 07:47:26;;;;;;;8.25;4.75;;;12.50;64.60;;;;;;5092028;28;20046;-70
2022/04/29 07:49:51;;;;;;;6.88;4.22;;;12.70;64.00;;;;;;5090843;28;20450;-71
2022/04/29 07:52:17;;;;;;;8.45;4.32;;;12.80;63.80;;;;;;5091430;28;20115;-71
2022/04/29 07:54:43;;;;;;;11.45;5.13;;;12.80;63.30;;;;;;5092026;28;20035;-70
2022/04/29 07:57:08;;;;;;;7.70;4.30;;;12.80;63.40;;;;;;5092042;28;20024;-70
2022/04/29 07:59:34;;;;;;;8.55;4.10;;;12.80;63.40;;;;;;5096214;28;20079;-71
2022/04/29 08:01:59;;;;;;;11.90;5.32;;;13.00;63.30;;;;;;5093793;28;20020;-71
2022/04/29 08:04:25;;;;;;;9.38;5.47;;;13.00;62.80;;;;;;5094465;28;20028;-70
2022/04/29 08:06:50;;;;;;;8.52;5.03;;;12.90;62.70;;;;;;5093888;28;20031;-70
2022/04/29 08:09:16;;;;;;;10.80;4.78;;;13.00;62.90;;;;;;5092645;28;20022;-70
2022/04/29 08:11:41;;;;;;;6.22;4.47;;;13.00;62.90;;;;;;5075276;28;20035;-70
2022/04/29 08:14:07;;;;;;;8.57;4.47;;;13.00;62.80;;;;;;5092092;28;20016;-70
2022/04/29 08:16:33;;;;;;;8.43;4.80;;;12.80;62.60;;;;;;5090456;28;20120;-70
2022/04/29 08:18:58;;;;;;;7.32;4.25;;;12.80;62.80;;;;;;5088703;28;20028;-70
2022/04/29 08:21:24;;;;;;;8.15;4.43;;;12.90;62.70;;;;;;5087479;28;20052;-70
2022/04/29 08:23:49;;;;;;;8.35;4.10;;;13.00;62.40;;;;;;5087723;28;20114;-70
2022/04/29 08:26:16;;;;;;;8.40;4.85;;;13.30;62.10;;;;;;5084604;28;20081;-69
2022/04/29 08:28:45;;;;;;;9.07;5.32;;;13.30;61.00;;;;;;5104155;28;20027;-68
2022/04/29 08:31:11;;;;;;;7.85;4.80;;;12.90;60.30;;;;;;5110640;28;20044;-68
2022/04/29 08:33:37;;;;;;;8.57;4.15;;;12.70;61.30;;;;;;5111598;28;20065;-69
2022/04/29 08:36:03;;;;;;;6.13;3.85;;;12.80;61.80;;;;;;5113460;28;20016;-72
2022/04/29 08:38:30;;;;;;;8.45;4.28;;;12.90;61.70;;;;;;5108531;28;20494;-68
2022/04/29 08:41:00;;;;;;;7.80;4.10;;;12.90;61.40;;;;;;5102802;28;20022;-72
2022/04/29 08:43:26;;;;;;;6.68;4.22;;;13.00;61.10;;;;;;5087884;28;20458;-70
2022/04/29 08:45:52;;;;;;;9.27;5.00;;;13.10;61.10;;;;;;5091298;28;20016;-70
2022/04/29 08:48:18;;;;;;;5.35;4.05;;;13.00;60.60;;;;;;5094024;28;20110;-70
2022/04/29 08:50:44;;;;;;;6.43;4.40;;;13.00;60.80;;;;;;5089668;28;20796;-72
2022/04/29 08:53:09;;;;;;;8.20;4.20;;;13.10;60.70;;;;;;5090665;28;20024;-71
2022/04/29 08:58:39;;;;;;;7.93;4.97;;;13.30;60.50;;;;;;5089112;28;20475;-70
2022/04/29 09:01:16;;;;;;;5.88;3.90;;;13.30;60.30;;;;;;5088299;28;20117;-72
2022/04/29 09:03:44;;;;;;;6.72;4.22;;;13.50;60.10;;;;;;5086824;28;20024;-70
2022/04/29 09:06:10;;;;;;;9.30;4.93;;;13.60;59.70;;;;;;5086049;28;20106;-70
2022/04/29 09:08:41;;;;;;;9.70;4.90;;;13.70;59.60;;;;;;5087787;28;20103;-70
2022/04/29 09:11:07;;;;;;;6.65;4.40;;;13.80;59.40;;;;;;5087884;28;20031;-70
2022/04/29 09:13:37;;;;;;;6.70;4.28;;;13.80;58.80;;;;;;5088358;28;20036;-71
2022/04/29 09:16:07;;;;;;;8.95;6.10;;;13.80;58.60;;;;;;5087013;28;20035;-71
2022/04/29 09:18:35;;;;;;;8.70;5.00;;;13.80;57.90;;;;;;5087958;28;20042;-70
2022/04/29 09:21:05;;;;;;;8.10;4.53;;;13.80;58.30;;;;;;5089572;28;20024;-70
2022/04/29 09:23:59;;;;;;;6.47;4.25;;;14.00;58.30;;;;;;5089427;28;20031;-70
2022/04/29 09:26:26;;;;;;;9.27;5.78;;;14.10;57.80;;;;;;5089545;28;20030;-71
2022/04/29 09:29:09;;;;;;;7.80;4.72;;;14.20;57.10;;;;;;5089211;28;20402;-70
2022/04/29 09:31:55;;;;;;;8.13;5.43;;;14.30;57.50;;;;;;5087612;28;20117;-70
2022/04/29 09:34:21;;;;;;;8.98;5.32;;;14.40;57.40;;;;;;5085060;28;20029;-72
2022/04/29 09:36:47;;;;;;;9.30;5.07;;;14.60;57.40;;;;;;5089183;28;20074;-72
2022/04/29 09:39:30;;;;;;;7.10;4.43;;;14.60;57.20;;;;;;5088451;28;20024;-71
2022/04/29 09:42:05;;;;;;;7.50;5.50;;;14.70;57.00;;;;;;5088206;28;20693;-70
2022/04/29 09:44:34;;;;;;;7.18;4.47;;;14.60;56.90;;;;;;5089149;28;20034;-71
2022/04/29 09:47:12;;;;;;;7.72;5.43;;;14.70;57.00;;;;;;5090294;28;20032;-71
2022/04/29 09:49:39;;;;;;;8.45;5.65;;;14.50;56.80;;;;;;5089091;28;20032;-71
2022/04/29 09:52:06;;;;;;;9.02;5.40;;;14.60;57.10;;;;;;5087468;28;20020;-74
2022/04/29 09:54:37;;;;;;;8.27;5.13;;;14.60;57.00;;;;;;5089183;28;20486;-71
2022/04/29 09:57:07;;;;;;;8.10;5.65;;;14.60;56.70;;;;;;5088775;28;20077;-71
2022/04/29 09:59:35;;;;;;;10.20;5.88;;;14.50;56.80;;;;;;5092485;28;20031;-70
2022/04/29 10:02:01;;;;;;;10.23;6.20;;;14.60;56.50;;;;;;5082891;28;20035;-70
2022/04/29 10:04:34;;;;;;;9.13;5.18;;;14.40;56.30;;;;;;5083936;28;20101;-70
2022/04/29 10:07:04;;;;;;;8.00;4.63;;;14.40;56.90;;;;;;5081256;28;20034;-70
2022/04/29 10:09:32;;;;;;;6.15;3.95;;;14.60;56.90;;;;;;5088340;28;20060;-70
2022/04/29 10:12:00;;;;;;;10.50;5.90;;;14.70;56.50;;;;;;5090642;28;20028;-70
2022/04/29 10:14:28;;;;;;;8.52;5.22;;;14.60;55.90;;;;;;5083260;28;20478;-71
2022/04/29 10:22:33;;;;;;;9.13;4.75;;;14.30;57.30;;;;;;5088960;28;20031;-71
2022/04/29 10:24:59;;;;;;;7.40;5.10;;;14.50;56.90;;;;;;5089293;28;20101;-70
2022/04/29 10:27:26;;;;;;;8.43;5.10;;;14.50;56.20;;;;;;5091461;28;20013;-70
2022/04/29 10:29:52;;;;;;;6.88;4.25;;;14.60;56.30;;;;;;5095940;28;20020;-72
2022/04/29 10:32:18;;;;;;;6.15;3.88;;;14.70;56.10;;;;;;5085114;28;20035;-71
2022/04/29 10:34:43;;;;;;;8.32;4.72;;;14.70;56.00;;;;;;5090392;28;20016;-72
2022/04/29 10:37:13;;;;;;;7.78;4.60;;;14.80;55.60;;;;;;5089066;28;20502;-71
2022/04/29 10:39:40;;;;;;;10.23;5.53;;;14.80;55.70;;;;;;5089369;28;20371;-70
2022/04/29 10:42:09;;;;;;;7.05;4.45;;;14.90;55.40;;;;;;5089566;28;20077;-72
2022/04/29 10:44:58;;;;;;;7.53;4.50;;;14.90;55.50;;;;;;5088167;28;20036;-71
2022/04/29 10:47:38;;;;;;;8.40;5.20;;;14.90;55.40;;;;;;5087227;28;20115;-72
2022/04/29 10:50:31;;;;;;;8.25;4.63;;;14.80;55.00;;;;;;5086204;28;20035;-70
2022/04/29 10:53:05;;;;;;;7.30;4.57;;;14.90;55.20;;;;;;5088703;28;20117;-70
2022/04/29 10:55:31;;;;;;;7.38;4.22;;;14.80;55.00;;;;;;5083674;28;20371;-72
2022/04/29 10:58:02;;;;;;;7.55;4.35;;;15.00;55.00;;;;;;5084288;28;20024;-70
2022/04/29 11:00:28;;;;;;;7.10;4.57;;;14.90;55.10;;;;;;5089779;28;20024;-70
2022/04/29 11:02:54;;;;;;;6.90;4.40;;;15.00;54.80;;;;;;5096943;28;20046;-70
2022/04/29 11:05:37;;;;;;;10.50;5.60;;;15.00;54.90;;;;;;5091523;28;20032;-72
2022/04/29 11:08:13;;;;;;;5.88;4.53;;;14.70;54.20;;;;;;5093554;28;20032;-71
2022/04/29 11:10:53;;;;;;;5.97;4.38;;;14.70;55.00;;;;;;5091445;28;20566;-70
2022/04/29 11:13:23;;;;;;;6.15;3.70;;;14.90;55.30;;;;;;5096251;28;20024;-71
2022/04/29 11:15:49;;;;;;;6.85;4.00;;;15.00;55.20;;;;;;5091657;28;20047;-71
2022/04/29 11:18:23;;;;;;;7.38;4.70;;;15.20;55.00;;;;;;5089568;28;20491;-71
2022/04/29 11:20:55;;;;;;;9.40;5.55;;;15.30;54.60;;;;;;5089067;28;20024;-72
2022/04/29 11:26:11;;;;;;;9.18;5.30;;;15.10;54.70;;;;;;5090227;28;19915;-72
2022/04/29 11:28:37;;;;;;;7.55;4.95;;;15.10;54.70;;;;;;5095994;28;20223;-72
2022/04/29 11:31:06;;;;;;;8.63;4.43;;;15.10;54.70;;;;;;5094362;28;20030;-72
2022/04/29 11:33:31;;;;;;;7.85;4.65;;;15.20;54.60;;;;;;5083411;28;20044;-72
2022/04/29 11:36:06;;;;;;;5.95;3.53;;;15.20;54.40;;;;;;5088465;28;20059;-72
2022/04/29 11:38:39;;;;;;;8.95;5.43;;;15.30;54.50;;;;;;5082676;28;20039;-72
2022/04/29 11:41:05;;;;;;;7.05;4.88;;;15.30;53.80;;;;;;5086224;28;20030;-71
2022/04/29 11:43:30;;;;;;;7.88;5.47;;;15.10;54.20;;;;;;5089347;28;20138;-71
2022/04/29 11:46:01;;;;;;;9.45;4.45;;;15.10;54.40;;;;;;5090367;28;20050;-71
2022/04/29 11:48:26;;;;;;;8.10;4.00;;;15.10;54.40;;;;;;5090099;28;20059;-72
2022/04/29 11:50:55;;;;;;;6.03;4.38;;;15.20;54.40;;;;;;5093316;28;20085;-71
2022/04/29 11:53:21;;;;;;;6.75;4.18;;;15.30;54.20;;;;;;5095560;28;20046;-72
2022/04/29 11:55:50;;;;;;;5.78;4.45;;;15.40;54.10;;;;;;5091040;28;20642;-72
2022/04/29 11:58:16;;;;;;;7.80;4.57;;;15.40;53.70;;;;;;5094569;28;20512;-72
2022/04/29 12:00:49;;;;;;;6.13;3.90;;;15.30;53.90;;;;;;5097710;28;20027;-72
2022/04/29 12:03:22;;;;;;;7.88;4.25;;;15.30;54.00;;;;;;5090896;28;20435;-71
2022/04/29 12:05:48;;;;;;;6.82;4.93;;;15.30;54.10;;;;;;5090666;28;20024;-71
2022/04/29 12:08:14;;;;;;;6.18;3.95;;;15.20;54.00;;;;;;5089520;28;20092;-71
2022/04/29 12:10:44;;;;;;;8.55;4.10;;;15.30;54.00;;;;;;5089728;28;20549;-71
2022/04/29 12:13:09;;;;;;;8.32;5.07;;;15.30;53.90;;;;;;5092526;28;20020;-70
2022/04/29 12:15:37;;;;;;;10.70;4.65;;;15.20;53.60;;;;;;5094925;28;20035;-71
2022/04/29 12:18:08;;;;;;;9.48;4.90;;;15.20;53.60;;;;;;5089350;28;20028;-71
2022/04/29 12:20:34;;;;;;;7.28;3.85;;;15.20;53.60;;;;;;5089581;28;20012;-70
2022/04/29 12:23:16;;;;;;;9.00;4.63;;;15.10;53.70;;;;;;5089853;28;20394;-71
2022/04/29 12:25:45;;;;;;;5.93;4.13;;;15.10;53.40;;;;;;5092909;28;20020;-71
2022/04/29 12:28:21;;;;;;;4.97;4.13;;;15.10;53.40;;;;;;5091752;28;20595;-71
2022/04/29 12:37:00;;;;;;;5.30;3.77;;;15.30;53.00;;;;;;5091271;28;20035;-70
2022/04/29 12:39:34;;;;;;;6.60;4.38;;;15.30;52.80;;;;;;5086980;28;20134;-71
2022/04/29 12:42:05;;;;;;;6.68;4.80;;;15.40;52.40;;;;;;5092330;28;20136;-71
2022/04/29 12:45:10;;;;;;;7.60;3.70;;;15.30;52.10;;;;;;5090803;28;20031;-71
2022/04/29 12:47:39;;;;;;;5.10;3.60;;;15.40;52.30;;;;;;5095443;28;20414;-71
2022/04/29 12:50:18;;;;;;;6.05;4.38;;;15.50;52.40;;;;;;5090252;28;20024;-71
2022/04/29 12:52:51;;;;;;;6.70;4.38;;;15.60;52.20;;;;;;5088549;28;20471;-71
2022/04/29 12:55:17;;;;;;;6.38;4.75;;;15.60;51.60;;;;;;5099145;28;20065;-71
2022/04/29 12:57:42;;;;;;;5.07;3.90;;;15.60;51.70;;;;;;5087717;28;20020;-71
2022/04/29 13:00:09;;;;;;;3.58;3.03;;;15.60;51.80;;;;;;5091824;28;20020;-71
2022/04/29 13:02:35;;;;;;;7.15;3.50;;;15.80;51.80;;;;;;5090881;28;20517;-71
2022/04/29 13:05:00;;;;;;;4.95;4.22;;;16.00;51.40;;;;;;5089382;28;20024;-71
2022/04/29 13:07:26;;;;;;;6.20;4.50;;;16.20;50.80;;;;;;5091609;28;20039;-71
2022/04/29 13:09:51;;;;;;;6.25;4.43;;;16.40;50.50;;;;;;5097081;28;20110;-71
2022/04/29 13:12:18;;;;;;;8.45;4.07;;;16.60;49.80;;;;;;5085899;28;20039;-70
2022/04/29 13:14:43;;;;;;;7.28;4.72;;;16.70;49.30;;;;;;5086038;28;20114;-71
2022/04/29 13:17:09;;;;;;;8.70;5.20;;;16.80;48.80;;;;;;5082096;28;20135;-72
2022/04/29 13:19:36;;;;;;;7.05;4.75;;;16.80;48.20;;;;;;5091684;28;20485;-71
2022/04/29 13:22:02;;;;;;;4.70;3.60;;;16.80;48.50;;;;;;5092154;28;20114;-71